Time;durP1;ratioP1;P1;durP2;ratioP2;P2;SDS_P1;SDS_P2;PMS_P1;PMS_P2;Temp;Humidity;BMP_temperature;BMP_pressure;BME280_temperature;BME280_humidity;BME280_pressure;Samples;Min_cycle;Max_cycle;Signal;HPM_P1;HPM_P2
2022/05/30 00:01:55;;;;;;;3.92;1.10;;;26.60;45.00;;;;;;4151867;28;20815;-44
2022/05/30 00:03:57;;;;;;;2.70;1.60;;;26.70;44.90;;;;;;4146678;28;20090;-41
2022/05/30 00:05:59;;;;;;;3.15;1.60;;;26.80;44.90;;;;;;4148676;28;20171;-41
2022/05/30 00:08:02;;;;;;;2.88;1.42;;;26.90;44.80;;;;;;4153473;28;20056;-46
2022/05/30 00:10:05;;;;;;;4.07;1.42;;;27.00;44.60;;;;;;4146745;28;20557;-45
2022/05/30 00:12:08;;;;;;;2.65;1.45;;;27.10;44.60;;;;;;4146845;28;20071;-43
2022/05/30 00:14:10;;;;;;;4.82;1.63;;;27.20;44.50;;;;;;4154802;28;20593;-41
2022/05/30 00:16:17;;;;;;;2.90;1.70;;;27.30;44.50;;;;;;4150317;28;21025;-43
2022/05/30 00:18:19;;;;;;;4.40;1.73;;;27.40;44.30;;;;;;4143680;28;20316;-44
2022/05/30 00:20:22;;;;;;;2.63;1.52;;;27.40;44.10;;;;;;4143893;28;20052;-46
2022/05/30 00:22:24;;;;;;;4.13;1.45;;;27.50;44.20;;;;;;4157441;28;20555;-40
2022/05/30 00:24:26;;;;;;;5.57;1.48;;;27.60;44.10;;;;;;4151075;28;20053;-41
2022/05/30 00:26:28;;;;;;;2.65;1.45;;;27.70;44.30;;;;;;4147844;28;20440;-42
2022/05/30 00:28:30;;;;;;;4.30;1.50;;;27.60;44.50;;;;;;4153065;28;20053;-41
2022/05/30 00:30:32;;;;;;;1.95;1.42;;;27.20;44.80;;;;;;4149897;28;20915;-41
2022/05/30 00:32:35;;;;;;;2.60;1.50;;;26.90;45.30;;;;;;4148154;28;20588;-40
2022/05/30 00:34:38;;;;;;;2.58;1.50;;;26.50;45.70;;;;;;4153036;28;20109;-43
2022/05/30 00:36:40;;;;;;;3.08;1.75;;;26.20;46.20;;;;;;4158039;28;20560;-40
2022/05/30 00:38:42;;;;;;;2.65;1.75;;;25.80;46.30;;;;;;4149176;28;20153;-42
2022/05/30 00:40:44;;;;;;;2.72;1.40;;;25.50;46.50;;;;;;4146710;28;20505;-44
2022/05/30 00:42:46;;;;;;;2.77;1.43;;;25.30;46.70;;;;;;4157363;28;20677;-43
2022/05/30 00:44:49;;;;;;;2.15;1.40;;;25.10;46.80;;;;;;4165964;28;21358;-40
2022/05/30 00:46:51;;;;;;;3.60;1.45;;;24.90;47.10;;;;;;4151114;28;20065;-42
2022/05/30 00:49:02;;;;;;;5.50;1.60;;;24.70;47.30;;;;;;4154869;28;20749;-42
2022/05/30 00:51:13;;;;;;;8.55;3.13;;;24.60;47.80;;;;;;4156633;28;20051;-40
2022/05/30 00:53:15;;;;;;;3.88;2.58;;;24.30;45.80;;;;;;4159140;28;20209;-40
2022/05/30 00:55:21;;;;;;;3.80;2.50;;;24.00;45.30;;;;;;4149524;28;20745;-40
2022/05/30 00:57:25;;;;;;;6.63;2.92;;;23.70;45.10;;;;;;4150346;28;20060;-38
2022/05/30 00:59:27;;;;;;;4.35;2.50;;;23.40;45.30;;;;;;4147926;28;20431;-43
2022/05/30 01:01:32;;;;;;;4.70;2.30;;;23.30;45.80;;;;;;4156719;28;20125;-45
2022/05/30 01:08:15;;;;;;;3.88;2.20;;;23.00;47.20;;;;;;4148706;28;20044;-40
2022/05/30 01:10:21;;;;;;;7.50;2.60;;;22.90;47.90;;;;;;4156404;28;20627;-40
2022/05/30 01:12:52;;;;;;;5.05;2.25;;;22.70;48.40;;;;;;4152506;28;20051;-40
2022/05/30 01:14:55;;;;;;;4.65;2.25;;;22.60;48.90;;;;;;4149559;28;20653;-39
2022/05/30 01:16:58;;;;;;;5.15;2.22;;;22.50;49.10;;;;;;4156525;28;20118;-41
2022/05/30 01:19:01;;;;;;;3.78;2.10;;;22.50;49.30;;;;;;4152976;28;22273;-39
2022/05/30 01:21:18;;;;;;;4.00;1.55;;;22.40;49.40;;;;;;4147564;28;20056;-39
2022/05/30 01:23:38;;;;;;;3.30;1.90;;;22.30;49.50;;;;;;4148392;28;20064;-40
2022/05/30 01:26:07;;;;;;;4.65;2.20;;;22.20;49.70;;;;;;4154000;28;20052;-39
2022/05/30 01:28:55;;;;;;;2.28;1.55;;;22.10;49.90;;;;;;4147045;28;20529;-43
2022/05/30 01:30:57;;;;;;;6.20;1.95;;;22.00;50.00;;;;;;4141125;28;20484;-39
2022/05/30 01:32:59;;;;;;;2.67;1.40;;;21.90;50.20;;;;;;4147470;28;20160;-40
2022/05/30 01:35:02;;;;;;;5.97;1.63;;;21.80;50.60;;;;;;4155082;28;20056;-40
2022/05/30 01:37:04;;;;;;;3.58;1.77;;;21.80;50.90;;;;;;4147645;28;20049;-41
2022/05/30 01:39:06;;;;;;;6.05;1.77;;;21.70;51.10;;;;;;4146713;28;20597;-41
2022/05/30 01:41:08;;;;;;;5.10;1.60;;;21.60;51.30;;;;;;4150752;28;20048;-40
2022/05/30 01:43:10;;;;;;;4.57;1.45;;;21.60;51.40;;;;;;4146930;28;20075;-43
2022/05/30 01:45:12;;;;;;;3.70;1.63;;;21.50;51.50;;;;;;4145535;28;20060;-39
2022/05/30 01:47:15;;;;;;;6.22;1.50;;;21.40;51.70;;;;;;4155051;28;20079;-40
2022/05/30 01:49:17;;;;;;;4.45;1.35;;;21.40;51.80;;;;;;4132675;28;20806;-39
2022/05/30 01:51:21;;;;;;;5.80;1.90;;;21.30;51.70;;;;;;4143556;28;20514;-39
2022/05/30 01:53:24;;;;;;;4.53;1.80;;;21.20;51.80;;;;;;4142469;28;20078;-41
2022/05/30 01:55:26;;;;;;;3.30;1.52;;;21.20;52.00;;;;;;4151645;28;20067;-39
2022/05/30 01:57:28;;;;;;;1.80;1.20;;;21.10;52.20;;;;;;4144173;28;20079;-39
2022/05/30 01:59:30;;;;;;;2.85;1.38;;;21.00;51.90;;;;;;4147824;28;20047;-39
2022/05/30 02:01:33;;;;;;;3.08;1.35;;;21.00;52.10;;;;;;4152281;28;20087;-39
2022/05/30 02:03:35;;;;;;;3.00;1.65;;;21.00;52.20;;;;;;4146489;28;21007;-39
2022/05/30 02:05:37;;;;;;;4.13;1.55;;;20.90;52.30;;;;;;4144679;28;20435;-40
2022/05/30 02:07:39;;;;;;;3.63;1.65;;;20.80;52.30;;;;;;4146950;28;20512;-40
2022/05/30 02:09:41;;;;;;;7.07;2.30;;;20.80;51.90;;;;;;4166089;28;20186;-39
2022/05/30 02:11:43;;;;;;;6.30;2.33;;;20.70;51.70;;;;;;4146933;28;20047;-39
2022/05/30 02:13:46;;;;;;;3.33;1.90;;;20.70;51.90;;;;;;4147757;28;20084;-40
2022/05/30 02:18:09;;;;;;;3.47;1.80;;;20.40;52.10;;;;;;4150036;28;20122;-40
2022/05/30 02:20:11;;;;;;;3.23;1.70;;;20.30;52.20;;;;;;4153251;28;20057;-37
2022/05/30 02:22:16;;;;;;;2.88;1.75;;;20.30;52.50;;;;;;4146831;28;20086;-45
2022/05/30 02:24:19;;;;;;;7.72;2.00;;;20.20;52.70;;;;;;4146154;28;20056;-44
2022/05/30 02:26:21;;;;;;;2.88;1.60;;;20.20;53.00;;;;;;4155034;28;20557;-39
2022/05/30 02:28:23;;;;;;;2.45;1.45;;;20.10;53.20;;;;;;4147580;28;21208;-38
2022/05/30 02:30:25;;;;;;;2.35;1.35;;;20.10;53.40;;;;;;4146287;28;20106;-39
2022/05/30 02:32:27;;;;;;;3.80;1.38;;;20.10;53.80;;;;;;4149275;28;20143;-43
2022/05/30 02:36:51;;;;;;;3.17;1.48;;;20.00;54.40;;;;;;4152665;28;20609;-40
2022/05/30 02:38:53;;;;;;;;;;;20.00;55.20;;;;;;4152660;28;20055;-43
2022/05/30 02:40:55;;;;;;;2.45;1.40;;;20.00;55.60;;;;;;4147004;28;19979;-41
2022/05/30 02:42:57;;;;;;;2.95;1.40;;;19.90;55.60;;;;;;4146775;28;20051;-41
2022/05/30 02:44:59;;;;;;;2.92;1.20;;;19.90;55.70;;;;;;4155921;28;20043;-38
2022/05/30 02:47:01;;;;;;;1.45;0.85;;;19.90;55.70;;;;;;4153285;28;20052;-40
2022/05/30 02:49:04;;;;;;;2.77;1.10;;;19.90;55.90;;;;;;4149596;28;20098;-38
2022/05/30 02:51:06;;;;;;;5.50;1.30;;;19.90;56.00;;;;;;4147959;28;20667;-44
2022/05/30 02:53:09;;;;;;;2.65;1.20;;;19.80;56.10;;;;;;4144552;28;20098;-42
2022/05/30 02:55:11;;;;;;;2.28;1.23;;;19.80;56.20;;;;;;4144930;28;20082;-41
2022/05/30 02:57:13;;;;;;;1.50;1.00;;;19.80;56.30;;;;;;4151188;28;20056;-39
2022/05/30 02:59:15;;;;;;;2.08;0.88;;;19.80;56.50;;;;;;4151717;28;20191;-38
2022/05/30 03:01:17;;;;;;;3.45;1.20;;;19.80;56.40;;;;;;4144697;28;20044;-38
2022/05/30 03:03:20;;;;;;;3.60;1.20;;;19.70;56.40;;;;;;4146476;28;20055;-41
2022/05/30 03:05:22;;;;;;;12.55;1.95;;;19.70;56.60;;;;;;4151618;28;20329;-39
2022/05/30 03:07:24;;;;;;;4.80;1.23;;;19.70;56.70;;;;;;4143597;28;20130;-38
2022/05/30 03:09:26;;;;;;;3.42;1.00;;;19.60;56.70;;;;;;4140867;28;20060;-38
2022/05/30 03:11:28;;;;;;;10.32;1.50;;;19.60;56.70;;;;;;4151698;28;20041;-39
2022/05/30 03:13:30;;;;;;;8.82;1.20;;;19.60;56.80;;;;;;4143872;28;20954;-37
2022/05/30 03:15:33;;;;;;;5.28;1.33;;;19.50;56.70;;;;;;4141023;28;20138;-38
2022/05/30 03:17:35;;;;;;;2.58;1.02;;;19.50;56.90;;;;;;4148125;28;20060;-39
2022/05/30 03:19:37;;;;;;;2.05;1.00;;;19.50;56.80;;;;;;4145684;28;20735;-39
2022/05/30 03:21:40;;;;;;;1.27;0.60;;;19.50;56.80;;;;;;4140622;28;20608;-42
2022/05/30 03:23:42;;;;;;;1.75;0.80;;;19.40;56.80;;;;;;4142531;28;20161;-41
2022/05/30 03:25:44;;;;;;;2.83;0.90;;;19.40;56.90;;;;;;4143492;28;20517;-45
2022/05/30 03:27:46;;;;;;;2.13;0.80;;;19.40;57.00;;;;;;4134715;28;20087;-41
2022/05/30 03:29:48;;;;;;;2.15;0.90;;;19.40;57.20;;;;;;4143673;28;20502;-40
2022/05/30 03:31:50;;;;;;;9.23;1.40;;;19.40;57.20;;;;;;4150306;28;20048;-40
2022/05/30 03:33:53;;;;;;;1.40;0.77;;;19.30;57.00;;;;;;4143625;28;20402;-38
2022/05/30 03:35:55;;;;;;;1.15;0.77;;;19.30;57.10;;;;;;4145615;28;20110;-38
2022/05/30 03:37:58;;;;;;;1.52;0.90;;;19.30;57.10;;;;;;4151896;28;20186;-39
2022/05/30 03:40:00;;;;;;;2.67;0.80;;;19.30;57.20;;;;;;4150431;28;21716;-38
2022/05/30 03:42:02;;;;;;;3.00;1.00;;;19.30;57.30;;;;;;4144801;28;20091;-37
2022/05/30 03:44:04;;;;;;;2.58;0.82;;;19.30;57.40;;;;;;4147539;28;20402;-39
2022/05/30 03:46:07;;;;;;;6.50;1.67;;;19.20;57.60;;;;;;4151922;28;20062;-44
2022/05/30 03:48:11;;;;;;;1.67;0.80;;;19.20;57.90;;;;;;4142827;28;20072;-45
2022/05/30 03:50:19;;;;;;;2.85;0.75;;;19.60;57.70;;;;;;4146498;28;20542;-41
2022/05/30 03:52:21;;;;;;;1.95;0.75;;;20.20;56.60;;;;;;4147531;28;20067;-39
2022/05/30 03:54:23;;;;;;;4.22;0.95;;;20.80;55.20;;;;;;4153645;28;20147;-43
2022/05/30 03:56:25;;;;;;;1.77;0.93;;;21.30;54.20;;;;;;4148692;28;20661;-41
2022/05/30 03:58:27;;;;;;;4.70;0.70;;;21.80;53.50;;;;;;4148163;28;20159;-42
2022/05/30 04:00:31;;;;;;;1.40;0.80;;;22.20;52.70;;;;;;4158482;28;20742;-39
2022/05/30 04:02:33;;;;;;;3.35;0.68;;;22.60;52.10;;;;;;4154443;28;21054;-40
2022/05/30 04:04:36;;;;;;;1.63;0.60;;;22.90;51.30;;;;;;4149357;28;20052;-43
2022/05/30 04:06:38;;;;;;;0.60;0.50;;;23.20;50.70;;;;;;4150163;28;20120;-39
2022/05/30 04:08:40;;;;;;;5.97;0.73;;;23.50;50.40;;;;;;4157401;28;20926;-41
2022/05/30 04:10:42;;;;;;;1.65;0.70;;;23.80;49.80;;;;;;4149390;28;20052;-40
2022/05/30 04:12:45;;;;;;;3.45;0.80;;;24.10;49.50;;;;;;4145470;28;20647;-42
2022/05/30 04:14:56;;;;;;;3.10;0.85;;;24.30;49.30;;;;;;4154202;28;20056;-42
2022/05/30 04:16:58;;;;;;;1.65;0.70;;;24.60;48.90;;;;;;4150569;28;21014;-44
2022/05/30 04:19:01;;;;;;;2.47;0.50;;;24.80;48.50;;;;;;4144909;28;21438;-45
2022/05/30 04:21:10;;;;;;;1.98;0.77;;;24.60;48.60;;;;;;4148540;28;20316;-45
2022/05/30 04:23:12;;;;;;;0.98;0.43;;;24.30;49.00;;;;;;4147284;28;20519;-46
2022/05/30 04:25:15;;;;;;;2.13;0.60;;;24.00;49.50;;;;;;4151579;28;20841;-41
2022/05/30 04:27:17;;;;;;;1.40;0.65;;;23.70;50.00;;;;;;4149441;28;20758;-42
2022/05/30 04:29:19;;;;;;;1.85;0.50;;;23.50;50.40;;;;;;4146321;28;20052;-42
2022/05/30 04:31:21;;;;;;;0.73;0.57;;;23.20;50.90;;;;;;4152384;28;20551;-43
2022/05/30 04:33:23;;;;;;;1.45;0.60;;;23.00;51.40;;;;;;4147716;28;20082;-42
2022/05/30 04:35:25;;;;;;;3.55;0.80;;;22.80;51.70;;;;;;4143601;28;20074;-43
2022/05/30 04:37:29;;;;;;;0.80;0.60;;;22.70;52.10;;;;;;4149183;28;20176;-41
2022/05/30 04:39:31;;;;;;;1.80;0.70;;;22.50;52.40;;;;;;4153046;28;20113;-41
2022/05/30 04:41:34;;;;;;;0.43;0.43;;;22.40;52.60;;;;;;4143067;28;20061;-40
2022/05/30 04:43:36;;;;;;;0.63;0.43;;;22.30;52.30;;;;;;4145311;28;20285;-40
2022/05/30 04:45:38;;;;;;;2.38;0.63;;;22.20;52.40;;;;;;4151746;28;20071;-47
2022/05/30 04:47:40;;;;;;;1.15;0.63;;;22.10;52.40;;;;;;4144054;28;20093;-41
2022/05/30 04:49:43;;;;;;;0.50;0.50;;;22.00;52.40;;;;;;4143852;28;20114;-41
2022/05/30 04:51:45;;;;;;;1.70;0.60;;;21.90;52.50;;;;;;4148917;28;20741;-44
2022/05/30 04:53:47;;;;;;;1.42;0.70;;;21.80;52.80;;;;;;4151327;28;21460;-41
2022/05/30 04:55:49;;;;;;;0.77;0.60;;;22.00;52.90;;;;;;4145397;28;20052;-40
2022/05/30 04:57:52;;;;;;;0.80;0.47;;;22.40;52.10;;;;;;4149961;28;20060;-43
2022/05/30 04:59:54;;;;;;;;;;;22.90;51.10;;;;;;4153301;28;20048;-42
2022/05/30 05:01:56;;;;;;;1.20;0.65;;;23.40;50.40;;;;;;4144036;28;19924;-47
2022/05/30 05:03:59;;;;;;;1.00;0.65;;;23.80;49.40;;;;;;4146156;28;20052;-46
2022/05/30 05:06:06;;;;;;;;;;;24.20;48.60;;;;;;4152641;28;20525;-42
2022/05/30 05:08:17;;;;;;;0.60;0.60;;;24.60;48.20;;;;;;4150933;28;19935;-43
2022/05/30 05:11:05;;;;;;;0.73;0.50;;;24.90;47.60;;;;;;4145475;28;21001;-42
2022/05/30 05:13:07;;;;;;;1.52;0.50;;;25.30;47.10;;;;;;4145532;28;20867;-43
2022/05/30 05:15:09;;;;;;;0.60;0.50;;;25.60;46.50;;;;;;4143469;28;20386;-47
2022/05/30 05:17:11;;;;;;;0.82;0.77;;;25.80;46.10;;;;;;4143842;28;20055;-44
2022/05/30 05:19:13;;;;;;;1.75;0.70;;;26.00;45.80;;;;;;4151928;28;20159;-44
2022/05/30 05:21:24;;;;;;;0.93;0.60;;;26.20;45.50;;;;;;4145792;28;20699;-49
2022/05/30 05:23:26;;;;;;;1.13;0.70;;;26.30;45.60;;;;;;4143586;28;21142;-41
2022/05/30 05:25:29;;;;;;;1.00;0.70;;;26.10;46.60;;;;;;4144743;28;20066;-42
2022/05/30 05:27:31;;;;;;;0.70;0.40;;;25.80;46.30;;;;;;4149996;28;20118;-44
2022/05/30 05:29:33;;;;;;;0.60;0.38;;;25.40;46.70;;;;;;4145142;28;20649;-42
2022/05/30 05:31:35;;;;;;;0.80;0.47;;;25.10;47.20;;;;;;4143789;28;20059;-44
2022/05/30 05:33:38;;;;;;;1.05;0.47;;;24.80;47.70;;;;;;4147885;28;20553;-44
2022/05/30 05:35:44;;;;;;;1.48;0.40;;;24.60;48.30;;;;;;4152958;28;20133;-41
2022/05/30 05:37:46;;;;;;;4.05;0.98;;;24.40;48.70;;;;;;4147151;28;20058;-42
2022/05/30 05:39:49;;;;;;;1.98;0.70;;;24.20;48.20;;;;;;4145916;28;20051;-46
2022/05/30 05:41:51;;;;;;;1.88;0.70;;;23.80;48.70;;;;;;4149961;28;20327;-43
2022/05/30 05:43:54;;;;;;;2.25;0.85;;;23.60;48.90;;;;;;4152624;28;20056;-45
2022/05/30 05:45:57;;;;;;;0.75;0.65;;;23.30;49.20;;;;;;4146129;28;20437;-43
2022/05/30 05:47:59;;;;;;;1.10;0.82;;;23.10;49.60;;;;;;4158557;28;20201;-43
2022/05/30 05:50:01;;;;;;;1.30;0.90;;;22.90;49.80;;;;;;4047930;28;2964108;-43
2022/05/30 05:52:03;;;;;;;1.90;1.20;;;22.70;50.20;;;;;;4141499;28;20052;-43
2022/05/30 05:54:07;;;;;;;3.00;1.95;;;22.60;50.50;;;;;;4144251;28;20080;-41
2022/05/30 05:56:14;;;;;;;2.95;2.00;;;22.40;50.80;;;;;;4154252;28;20125;-45
2022/05/30 05:58:16;;;;;;;3.58;2.10;;;22.30;51.00;;;;;;4151715;28;20071;-43
2022/05/30 06:00:19;;;;;;;3.55;2.33;;;22.20;51.30;;;;;;4145354;28;20450;-47
2022/05/30 06:02:27;;;;;;;3.85;2.25;;;22.10;51.80;;;;;;4145338;28;20059;-47
2022/05/30 06:04:29;;;;;;;3.65;2.58;;;22.00;52.10;;;;;;4147085;28;20598;-43
2022/05/30 06:06:31;;;;;;;3.83;2.40;;;21.80;52.30;;;;;;4155772;28;20052;-44
2022/05/30 06:08:34;;;;;;;4.20;2.22;;;21.70;52.50;;;;;;4141875;28;20824;-48
2022/05/30 06:11:05;;;;;;;4.20;2.45;;;21.60;52.70;;;;;;4144445;28;20727;-49
2022/05/30 06:12:59;;;;;;;3.88;2.35;;;21.50;53.10;;;;;;4144128;28;20056;-40
2022/05/30 06:15:01;;;;;;;3.15;2.20;;;21.40;53.50;;;;;;4140857;28;20072;-44
2022/05/30 06:17:04;;;;;;;2.90;2.15;;;21.40;53.70;;;;;;4149571;28;20056;-42
2022/05/30 06:19:06;;;;;;;2.83;1.88;;;21.30;53.90;;;;;;4146016;28;21057;-45
2022/05/30 06:21:09;;;;;;;3.50;2.00;;;21.20;54.10;;;;;;4141130;28;20075;-45
2022/05/30 06:23:12;;;;;;;2.20;1.80;;;21.10;54.30;;;;;;4149105;28;20052;-44
2022/05/30 06:25:14;;;;;;;2.83;1.65;;;21.00;54.50;;;;;;4151373;28;20780;-44
2022/05/30 06:27:18;;;;;;;3.25;1.90;;;21.00;54.70;;;;;;4145899;28;20125;-43
2022/05/30 06:29:21;;;;;;;3.03;1.70;;;20.90;54.90;;;;;;4158085;28;20673;-42
2022/05/30 06:31:29;;;;;;;2.45;1.75;;;20.90;55.10;;;;;;4152246;28;20055;-47
2022/05/30 06:33:31;;;;;;;1.63;1.30;;;20.80;55.30;;;;;;4150730;28;20648;-43
2022/05/30 06:35:33;;;;;;;3.72;1.60;;;20.70;55.40;;;;;;4144948;28;20094;-41
2022/05/30 06:37:35;;;;;;;2.58;1.52;;;20.70;55.60;;;;;;4145200;28;20051;-42
2022/05/30 06:39:38;;;;;;;2.13;1.67;;;20.60;55.70;;;;;;4150194;28;20110;-44
2022/05/30 06:41:41;;;;;;;3.40;1.25;;;20.50;55.80;;;;;;4142350;28;20876;-42
2022/05/30 06:43:44;;;;;;;2.05;1.33;;;20.50;56.00;;;;;;4144388;28;20060;-46
2022/05/30 06:45:50;;;;;;;2.63;1.40;;;20.40;56.10;;;;;;4150363;28;20104;-41
2022/05/30 06:47:52;;;;;;;1.40;1.20;;;20.40;56.30;;;;;;4152983;28;20142;-43
2022/05/30 06:49:54;;;;;;;4.40;1.45;;;20.30;56.60;;;;;;4143509;28;20075;-43
2022/05/30 06:51:56;;;;;;;2.10;1.33;;;20.30;56.80;;;;;;4144266;28;20056;-42
2022/05/30 06:53:58;;;;;;;1.73;1.20;;;20.30;56.90;;;;;;4153676;28;20060;-43
2022/05/30 06:56:01;;;;;;;2.30;1.15;;;20.30;57.00;;;;;;4147933;28;20473;-42
2022/05/30 06:58:15;;;;;;;3.10;1.17;;;20.30;57.20;;;;;;4144922;28;20047;-41
2022/05/30 07:00:18;;;;;;;2.30;1.10;;;20.30;57.30;;;;;;4146258;28;20078;-42
2022/05/30 07:02:20;;;;;;;6.17;1.40;;;20.30;57.30;;;;;;4142519;28;20586;-42
2022/05/30 07:04:22;;;;;;;3.28;1.00;;;20.30;57.30;;;;;;4152761;28;20056;-40
2022/05/30 07:06:35;;;;;;;2.03;0.98;;;20.30;57.30;;;;;;4144353;28;20126;-44
2022/05/30 07:08:38;;;;;;;3.25;1.00;;;20.30;57.40;;;;;;4143785;28;20300;-40
2022/05/30 07:10:40;;;;;;;;;;;20.30;57.60;;;;;;4144163;28;20056;-40
2022/05/30 07:12:42;;;;;;;1.25;1.00;;;20.30;57.50;;;;;;4148818;28;19955;-42
2022/05/30 07:14:44;;;;;;;4.20;1.05;;;20.20;57.80;;;;;;4153802;28;20822;-48
2022/05/30 07:16:46;;;;;;;3.30;0.88;;;20.20;57.80;;;;;;4138155;28;20178;-39
2022/05/30 07:18:48;;;;;;;4.13;1.05;;;20.20;57.90;;;;;;4143092;28;20886;-40
2022/05/30 07:21:03;;;;;;;1.45;0.90;;;20.20;57.80;;;;;;4146572;28;20206;-40
2022/05/30 07:23:06;;;;;;;4.10;1.42;;;20.30;57.90;;;;;;4146861;28;20197;-42
2022/05/30 07:25:09;;;;;;;1.77;0.88;;;20.60;57.80;;;;;;4140022;28;20055;-43
2022/05/30 07:27:11;;;;;;;4.55;1.38;;;21.10;55.90;;;;;;4139741;28;20063;-41
2022/05/30 07:29:13;;;;;;;5.78;1.50;;;21.60;54.80;;;;;;4147635;28;20441;-40
2022/05/30 07:31:21;;;;;;;6.40;1.50;;;22.10;54.10;;;;;;4141706;28;20048;-40
2022/05/30 07:33:23;;;;;;;4.80;1.35;;;22.60;53.20;;;;;;4137796;28;20201;-40
2022/05/30 07:35:25;;;;;;;3.88;1.33;;;23.00;52.40;;;;;;4139387;28;20059;-45
2022/05/30 07:37:27;;;;;;;5.97;1.30;;;23.40;51.70;;;;;;4148503;28;20783;-45
2022/05/30 07:39:30;;;;;;;3.78;1.30;;;23.80;51.10;;;;;;4144302;28;21059;-41
2022/05/30 07:41:32;;;;;;;3.90;1.10;;;24.10;50.50;;;;;;4141427;28;20053;-40
2022/05/30 07:43:34;;;;;;;2.75;1.10;;;24.40;49.80;;;;;;4148100;28;20056;-41
2022/05/30 07:45:36;;;;;;;4.78;1.38;;;24.70;49.50;;;;;;4145909;28;21616;-40
2022/05/30 07:47:39;;;;;;;3.15;1.00;;;24.90;49.00;;;;;;4141465;28;20071;-41
2022/05/30 07:49:41;;;;;;;3.08;1.25;;;25.10;48.60;;;;;;4142111;28;20185;-44
2022/05/30 07:51:44;;;;;;;5.57;1.05;;;25.40;49.10;;;;;;4145669;28;20056;-40
2022/05/30 07:53:46;;;;;;;2.38;0.90;;;25.60;48.10;;;;;;4141125;28;20091;-41
2022/05/30 07:55:48;;;;;;;2.85;1.10;;;25.80;47.80;;;;;;4134047;28;20045;-41
2022/05/30 07:57:50;;;;;;;3.63;1.17;;;25.90;47.70;;;;;;4146275;28;20290;-41
2022/05/30 07:59:53;;;;;;;7.40;1.70;;;25.80;47.70;;;;;;4141482;28;20048;-40
2022/05/30 08:01:57;;;;;;;8.25;1.80;;;25.50;48.20;;;;;;4141235;28;20070;-40
2022/05/30 08:04:00;;;;;;;10.65;1.38;;;25.20;48.80;;;;;;4143150;28;20532;-39
2022/05/30 08:06:06;;;;;;;4.20;1.13;;;24.80;49.20;;;;;;4147272;28;20067;-40
2022/05/30 08:08:08;;;;;;;9.35;1.30;;;24.50;49.70;;;;;;4138456;28;20049;-40
2022/05/30 08:10:13;;;;;;;7.57;1.30;;;24.30;50.80;;;;;;4140383;28;20850;-43
2022/05/30 08:12:15;;;;;;;4.40;1.40;;;24.00;50.50;;;;;;4143617;28;20130;-41
2022/05/30 08:14:17;;;;;;;2.35;0.90;;;23.80;50.70;;;;;;4150332;28;20490;-41
2022/05/30 08:16:26;;;;;;;3.92;1.13;;;23.60;51.10;;;;;;4139234;28;20056;-40
2022/05/30 08:18:29;;;;;;;3.85;1.30;;;23.40;51.20;;;;;;4140558;28;20044;-39
2022/05/30 08:20:32;;;;;;;3.80;1.10;;;23.30;52.10;;;;;;4143852;28;20619;-42
2022/05/30 08:22:35;;;;;;;2.50;1.08;;;23.10;51.80;;;;;;4147570;28;20271;-42
2022/05/30 08:24:42;;;;;;;3.28;1.00;;;23.00;51.90;;;;;;4142135;28;20769;-40
2022/05/30 08:26:44;;;;;;;2.78;1.40;;;22.90;52.20;;;;;;4141668;28;20044;-41
2022/05/30 08:28:47;;;;;;;1.48;1.02;;;22.80;52.40;;;;;;4145172;28;20052;-41
2022/05/30 08:30:49;;;;;;;3.70;1.38;;;22.70;52.50;;;;;;4149107;28;20511;-40
2022/05/30 08:32:51;;;;;;;2.15;1.10;;;22.60;52.50;;;;;;4139718;28;20469;-45
2022/05/30 08:34:53;;;;;;;3.67;1.20;;;22.50;52.70;;;;;;4142712;28;20643;-39
2022/05/30 08:36:55;;;;;;;3.20;1.10;;;22.40;53.10;;;;;;4152519;28;20055;-44
2022/05/30 08:41:46;;;;;;;1.05;0.85;;;22.40;53.20;;;;;;4144820;28;20744;-40
2022/05/30 08:43:41;;;;;;;8.07;1.50;;;22.20;53.50;;;;;;4147865;28;20060;-43
2022/05/30 08:45:46;;;;;;;3.15;1.10;;;22.10;53.70;;;;;;4154441;28;20052;-40
2022/05/30 08:47:52;;;;;;;2.30;1.13;;;22.00;53.70;;;;;;4147317;28;21307;-40
2022/05/30 08:50:03;;;;;;;1.65;1.13;;;21.90;54.50;;;;;;4143513;28;20052;-46
2022/05/30 08:52:47;;;;;;;1.60;1.20;;;21.90;54.20;;;;;;4141681;28;20392;-43
2022/05/30 08:55:18;;;;;;;1.95;1.30;;;21.80;54.30;;;;;;4139784;28;20147;-39
2022/05/30 08:57:29;;;;;;;2.70;1.52;;;21.80;54.50;;;;;;4150367;28;20063;-40
2022/05/30 08:59:53;;;;;;;3.15;1.30;;;21.70;54.60;;;;;;4151455;28;20117;-40
2022/05/30 09:02:13;;;;;;;4.95;1.60;;;21.60;54.40;;;;;;4142402;28;20751;-41
2022/05/30 09:04:47;;;;;;;2.45;1.20;;;21.50;54.90;;;;;;4144175;28;20059;-46
2022/05/30 09:07:16;;;;;;;1.80;1.20;;;21.40;55.00;;;;;;4143084;28;20168;-42
2022/05/30 09:09:25;;;;;;;3.30;1.40;;;21.40;55.40;;;;;;4146702;28;20186;-39
2022/05/30 09:11:46;;;;;;;2.97;1.55;;;21.30;55.30;;;;;;4145615;28;20417;-41
2022/05/30 09:13:51;;;;;;;1.85;1.45;;;21.20;55.40;;;;;;4153195;28;20093;-41
2022/05/30 09:16:03;;;;;;;2.80;1.48;;;21.20;55.40;;;;;;4146663;28;20059;-40
2022/05/30 09:18:16;;;;;;;4.25;1.35;;;21.10;55.50;;;;;;4146744;28;21109;-40
2022/05/30 09:20:21;;;;;;;2.92;1.40;;;21.10;55.60;;;;;;4145157;28;20075;-45
2022/05/30 09:22:25;;;;;;;2.58;1.30;;;21.00;55.90;;;;;;4145353;28;20077;-46
2022/05/30 09:24:32;;;;;;;7.45;1.65;;;21.00;56.30;;;;;;4144261;28;20082;-46
2022/05/30 09:26:43;;;;;;;2.72;1.30;;;20.90;56.30;;;;;;4148928;28;20059;-41
2022/05/30 09:28:47;;;;;;;4.78;1.50;;;20.90;56.40;;;;;;4148966;28;20125;-43
2022/05/30 09:30:50;;;;;;;3.70;1.25;;;20.80;56.60;;;;;;4148470;28;20689;-44
2022/05/30 09:33:26;;;;;;;2.78;1.17;;;20.80;56.70;;;;;;4142547;28;20641;-43
2022/05/30 09:35:33;;;;;;;4.18;1.33;;;20.70;56.60;;;;;;4143941;28;20052;-42
2022/05/30 09:37:40;;;;;;;1.48;1.00;;;20.70;56.80;;;;;;4147492;28;20064;-45
2022/05/30 09:39:48;;;;;;;2.47;1.25;;;20.60;57.50;;;;;;4153295;28;20430;-39
2022/05/30 09:42:01;;;;;;;2.97;1.00;;;20.60;56.90;;;;;;4151763;28;20059;-40
2022/05/30 09:44:07;;;;;;;1.10;1.00;;;20.60;57.10;;;;;;4153634;28;20048;-40
2022/05/30 09:46:22;;;;;;;2.60;1.00;;;20.50;57.00;;;;;;4143342;28;20330;-42
2022/05/30 09:48:24;;;;;;;6.70;1.35;;;20.50;56.90;;;;;;4148563;28;21468;-40
2022/05/30 09:50:26;;;;;;;3.83;1.40;;;20.40;56.80;;;;;;4145294;28;20052;-40
2022/05/30 09:52:38;;;;;;;1.57;0.97;;;20.40;56.90;;;;;;4147615;28;20049;-41
2022/05/30 09:54:40;;;;;;;1.95;1.40;;;20.30;56.70;;;;;;4144293;28;20091;-43
2022/05/30 09:56:45;;;;;;;1.63;1.05;;;20.30;56.70;;;;;;4150768;28;20449;-41
2022/05/30 09:59:24;;;;;;;2.38;1.20;;;20.30;56.70;;;;;;4142502;28;20329;-41
2022/05/30 10:01:28;;;;;;;1.85;0.98;;;20.20;56.80;;;;;;4144337;28;20056;-40
2022/05/30 10:03:35;;;;;;;1.75;1.15;;;20.10;57.00;;;;;;4143556;28;20129;-42
2022/05/30 10:05:39;;;;;;;2.03;1.35;;;20.10;57.20;;;;;;4151276;28;20252;-39
2022/05/30 10:07:51;;;;;;;1.85;0.95;;;20.10;57.30;;;;;;4147527;28;20090;-41
2022/05/30 10:09:57;;;;;;;1.20;1.00;;;20.00;57.40;;;;;;4144355;28;21681;-39
2022/05/30 10:12:00;;;;;;;1.88;1.00;;;20.00;57.60;;;;;;4140000;28;20063;-43
2022/05/30 10:14:22;;;;;;;4.30;1.17;;;19.90;57.70;;;;;;4140819;28;20048;-39
2022/05/30 10:16:36;;;;;;;2.90;1.30;;;19.90;57.90;;;;;;4153680;28;20048;-42
2022/05/30 10:18:55;;;;;;;1.40;0.90;;;19.90;58.10;;;;;;4139233;28;20170;-42
2022/05/30 10:21:22;;;;;;;1.73;0.88;;;19.80;58.20;;;;;;4148169;28;20398;-40
2022/05/30 10:28:52;;;;;;;2.25;0.90;;;19.70;58.50;;;;;;4146958;28;20518;-41
2022/05/30 10:31:22;;;;;;;1.92;1.17;;;19.60;58.40;;;;;;4145565;28;20052;-41
2022/05/30 10:34:12;;;;;;;2.50;1.13;;;19.60;58.50;;;;;;4141639;28;20070;-41
2022/05/30 10:36:23;;;;;;;2.13;1.05;;;19.50;58.50;;;;;;4141002;28;20608;-39
2022/05/30 10:38:48;;;;;;;1.63;0.90;;;19.50;58.70;;;;;;4141522;28;20103;-44
2022/05/30 10:41:00;;;;;;;4.38;1.20;;;19.40;58.90;;;;;;4149922;28;20170;-42
2022/05/30 10:43:11;;;;;;;3.88;1.30;;;19.40;59.00;;;;;;4152248;28;20437;-43
2022/05/30 10:45:21;;;;;;;1.45;0.95;;;19.30;59.10;;;;;;4131314;28;20056;-41
2022/05/30 10:47:38;;;;;;;3.65;1.15;;;19.30;59.00;;;;;;4151017;28;20048;-41
2022/05/30 10:50:04;;;;;;;1.05;0.95;;;19.30;59.10;;;;;;4150330;28;20541;-41
2022/05/30 10:52:25;;;;;;;1.83;0.90;;;19.20;59.30;;;;;;4143138;28;20149;-44
2022/05/30 10:54:42;;;;;;;1.33;0.90;;;19.20;59.30;;;;;;4133594;28;20052;-41
2022/05/30 10:56:50;;;;;;;0.90;0.77;;;19.10;59.40;;;;;;4149697;28;21019;-42
2022/05/30 10:58:55;;;;;;;1.30;1.20;;;19.10;59.00;;;;;;4144832;28;20130;-44
2022/05/30 11:01:44;;;;;;;1.13;0.90;;;19.10;59.70;;;;;;4148231;28;20052;-46
2022/05/30 11:04:04;;;;;;;1.25;0.80;;;19.10;59.80;;;;;;4091814;28;20403;-43
2022/05/30 11:06:20;;;;;;;2.45;0.85;;;19.00;59.70;;;;;;4099048;28;20692;-41
2022/05/30 11:08:22;;;;;;;2.47;0.93;;;19.00;59.80;;;;;;4113511;28;20352;-41
2022/05/30 11:10:45;;;;;;;1.23;0.85;;;18.90;59.80;;;;;;4141751;28;20148;-40
2022/05/30 11:13:00;;;;;;;1.35;0.70;;;18.90;60.10;;;;;;4166392;28;20500;-41
2022/05/30 11:15:29;;;;;;;0.95;0.82;;;18.90;60.10;;;;;;4147159;28;20111;-42